Appleton, Washington
Current Conditions -  °F | °C
As of 11:53 PM on Saturday 25 Oct 2014 (Local Time) from KDLS Reporting Station
Few Clouds Few Clouds  
Wind Chill: 51°   Ceiling: Unl
Heat Index: 51°   Visibility: 10mi
Dew Point: 44°   Wind: 6mph
Humidity: 77%   Direction: 220°SW
Pressure: 29.84"   Gusts: NA
Location:  45.81°N, 121.27°W
Report Text: KDLS 260653Z AUTO 22005KT 10SM FEW050 FEW065 11/07 A2984 RMK AO2 RAE03B22E39 SLP104 P0001 T01060067
Loading
Personal Weather Stations






























Interactive Weather Map
Tropical Storm Tracking
New forecast layout! Learn more

10-Day Weather Forecast

Advertisements
Track Severe Weather on mobile